sensor_id;sensor_type;location;lat;lon;timestamp;P1;durP1;ratioP1;P2;durP2;ratioP2
25870;SDS011;13689;48.590;7.752;2023-11-18T00:01:25;13.15;;;8.75;;
25870;SDS011;13689;48.590;7.752;2023-11-18T00:03:51;14.65;;;9.73;;
25870;SDS011;13689;48.590;7.752;2023-11-18T00:06:16;18.17;;;9.57;;
25870;SDS011;13689;48.590;7.752;2023-11-18T00:08:42;17.75;;;9.35;;
25870;SDS011;13689;48.590;7.752;2023-11-18T00:11:08;18.25;;;10.13;;
25870;SDS011;13689;48.590;7.752;2023-11-18T00:13:36;20.67;;;10.00;;
25870;SDS011;13689;48.590;7.752;2023-11-18T00:16:04;18.00;;;10.25;;
25870;SDS011;13689;48.590;7.752;2023-11-18T00:18:30;23.23;;;11.15;;
25870;SDS011;13689;48.590;7.752;2023-11-18T00:20:56;21.25;;;9.82;;
25870;SDS011;13689;48.590;7.752;2023-11-18T00:23:23;19.83;;;10.32;;
25870;SDS011;13689;48.590;7.752;2023-11-18T00:25:49;17.20;;;9.80;;
25870;SDS011;13689;48.590;7.752;2023-11-18T00:28:14;18.23;;;9.93;;
25870;SDS011;13689;48.590;7.752;2023-11-18T00:30:40;15.20;;;10.10;;
25870;SDS011;13689;48.590;7.752;2023-11-18T00:33:06;17.23;;;10.43;;
25870;SDS011;13689;48.590;7.752;2023-11-18T00:35:31;16.08;;;10.30;;
25870;SDS011;13689;48.590;7.752;2023-11-18T00:37:58;11.10;;;7.50;;
25870;SDS011;13689;48.590;7.752;2023-11-18T00:40:25;18.75;;;9.70;;
25870;SDS011;13689;48.590;7.752;2023-11-18T00:42:51;20.38;;;10.57;;
25870;SDS011;13689;48.590;7.752;2023-11-18T00:45:17;15.63;;;10.07;;
25870;SDS011;13689;48.590;7.752;2023-11-18T00:47:43;19.65;;;11.70;;
25870;SDS011;13689;48.590;7.752;2023-11-18T00:50:09;22.92;;;12.00;;
25870;SDS011;13689;48.590;7.752;2023-11-18T00:52:34;21.88;;;10.65;;
25870;SDS011;13689;48.590;7.752;2023-11-18T00:55:03;18.55;;;11.60;;
25870;SDS011;13689;48.590;7.752;2023-11-18T00:57:32;20.17;;;10.55;;
25870;SDS011;13689;48.590;7.752;2023-11-18T00:59:57;18.92;;;11.07;;
25870;SDS011;13689;48.590;7.752;2023-11-18T01:02:23;16.90;;;10.77;;
25870;SDS011;13689;48.590;7.752;2023-11-18T01:04:49;16.65;;;10.88;;
25870;SDS011;13689;48.590;7.752;2023-11-18T01:07:15;15.65;;;10.00;;
25870;SDS011;13689;48.590;7.752;2023-11-18T01:09:41;17.27;;;10.15;;
25870;SDS011;13689;48.590;7.752;2023-11-18T01:12:07;16.65;;;10.07;;
25870;SDS011;13689;48.590;7.752;2023-11-18T01:14:38;17.67;;;10.77;;
25870;SDS011;13689;48.590;7.752;2023-11-18T01:17:04;16.23;;;10.07;;
25870;SDS011;13689;48.590;7.752;2023-11-18T01:19:31;22.35;;;11.90;;
25870;SDS011;13689;48.590;7.752;2023-11-18T01:21:57;20.60;;;11.63;;
25870;SDS011;13689;48.590;7.752;2023-11-18T01:24:22;21.27;;;11.80;;
25870;SDS011;13689;48.590;7.752;2023-11-18T01:26:48;21.55;;;12.13;;
25870;SDS011;13689;48.590;7.752;2023-11-18T01:29:13;18.98;;;11.80;;
25870;SDS011;13689;48.590;7.752;2023-11-18T01:31:39;21.65;;;12.45;;
25870;SDS011;13689;48.590;7.752;2023-11-18T01:34:08;21.75;;;13.23;;
25870;SDS011;13689;48.590;7.752;2023-11-18T01:36:34;22.25;;;13.15;;
25870;SDS011;13689;48.590;7.752;2023-11-18T01:39:00;23.83;;;13.77;;
25870;SDS011;13689;48.590;7.752;2023-11-18T01:41:26;24.27;;;14.18;;
25870;SDS011;13689;48.590;7.752;2023-11-18T01:43:51;22.05;;;13.57;;
25870;SDS011;13689;48.590;7.752;2023-11-18T01:46:18;26.60;;;14.43;;
25870;SDS011;13689;48.590;7.752;2023-11-18T01:48:46;25.88;;;15.05;;
25870;SDS011;13689;48.590;7.752;2023-11-18T01:51:12;24.73;;;14.65;;
25870;SDS011;13689;48.590;7.752;2023-11-18T01:53:39;26.58;;;14.90;;
25870;SDS011;13689;48.590;7.752;2023-11-18T01:56:08;23.20;;;13.55;;
25870;SDS011;13689;48.590;7.752;2023-11-18T01:58:36;26.50;;;14.25;;
25870;SDS011;13689;48.590;7.752;2023-11-18T02:01:02;21.27;;;13.68;;
25870;SDS011;13689;48.590;7.752;2023-11-18T02:03:32;24.85;;;13.55;;
25870;SDS011;13689;48.590;7.752;2023-11-18T02:05:58;23.90;;;13.70;;
25870;SDS011;13689;48.590;7.752;2023-11-18T02:08:23;23.55;;;12.35;;
25870;SDS011;13689;48.590;7.752;2023-11-18T02:11:00;24.75;;;13.02;;
25870;SDS011;13689;48.590;7.752;2023-11-18T02:13:37;22.58;;;13.07;;
25870;SDS011;13689;48.590;7.752;2023-11-18T02:16:06;20.23;;;12.25;;
25870;SDS011;13689;48.590;7.752;2023-11-18T02:18:33;25.95;;;14.25;;
25870;SDS011;13689;48.590;7.752;2023-11-18T02:21:00;19.55;;;12.02;;
25870;SDS011;13689;48.590;7.752;2023-11-18T02:23:26;18.13;;;11.85;;
25870;SDS011;13689;48.590;7.752;2023-11-18T02:25:52;21.50;;;11.48;;
25870;SDS011;13689;48.590;7.752;2023-11-18T02:28:19;19.27;;;11.65;;
25870;SDS011;13689;48.590;7.752;2023-11-18T02:30:45;22.23;;;11.40;;
25870;SDS011;13689;48.590;7.752;2023-11-18T02:33:13;21.13;;;11.32;;
25870;SDS011;13689;48.590;7.752;2023-11-18T02:35:53;22.35;;;11.88;;
25870;SDS011;13689;48.590;7.752;2023-11-18T02:38:31;21.83;;;11.98;;
25870;SDS011;13689;48.590;7.752;2023-11-18T02:41:06;18.27;;;10.75;;
25870;SDS011;13689;48.590;7.752;2023-11-18T02:43:36;21.98;;;10.82;;
25870;SDS011;13689;48.590;7.752;2023-11-18T02:46:05;20.02;;;10.95;;
25870;SDS011;13689;48.590;7.752;2023-11-18T02:48:32;21.60;;;10.98;;
25870;SDS011;13689;48.590;7.752;2023-11-18T02:50:58;19.88;;;11.27;;
25870;SDS011;13689;48.590;7.752;2023-11-18T02:53:24;20.13;;;11.45;;
25870;SDS011;13689;48.590;7.752;2023-11-18T02:55:50;20.42;;;11.00;;
25870;SDS011;13689;48.590;7.752;2023-11-18T02:58:19;20.02;;;10.57;;
25870;SDS011;13689;48.590;7.752;2023-11-18T03:00:45;22.60;;;11.70;;
25870;SDS011;13689;48.590;7.752;2023-11-18T03:03:11;22.92;;;11.93;;
25870;SDS011;13689;48.590;7.752;2023-11-18T03:05:37;21.95;;;11.10;;
25870;SDS011;13689;48.590;7.752;2023-11-18T03:08:03;18.27;;;11.45;;
25870;SDS011;13689;48.590;7.752;2023-11-18T03:10:31;20.30;;;11.38;;
25870;SDS011;13689;48.590;7.752;2023-11-18T03:12:59;20.10;;;11.05;;
25870;SDS011;13689;48.590;7.752;2023-11-18T03:15:25;23.55;;;10.90;;
25870;SDS011;13689;48.590;7.752;2023-11-18T03:17:52;23.00;;;11.68;;
25870;SDS011;13689;48.590;7.752;2023-11-18T03:20:19;20.67;;;11.07;;
25870;SDS011;13689;48.590;7.752;2023-11-18T03:22:47;22.67;;;11.00;;
25870;SDS011;13689;48.590;7.752;2023-11-18T03:25:14;21.40;;;10.82;;
25870;SDS011;13689;48.590;7.752;2023-11-18T03:27:41;21.85;;;11.25;;
25870;SDS011;13689;48.590;7.752;2023-11-18T03:30:08;18.15;;;10.57;;
25870;SDS011;13689;48.590;7.752;2023-11-18T03:32:34;19.63;;;10.85;;
25870;SDS011;13689;48.590;7.752;2023-11-18T03:35:04;18.38;;;10.30;;
25870;SDS011;13689;48.590;7.752;2023-11-18T03:37:40;19.88;;;10.32;;
25870;SDS011;13689;48.590;7.752;2023-11-18T03:40:10;17.67;;;9.95;;
25870;SDS011;13689;48.590;7.752;2023-11-18T03:42:36;18.10;;;9.32;;
25870;SDS011;13689;48.590;7.752;2023-11-18T03:45:03;19.52;;;10.07;;
25870;SDS011;13689;48.590;7.752;2023-11-18T03:47:29;19.05;;;10.07;;
25870;SDS011;13689;48.590;7.752;2023-11-18T03:49:55;17.52;;;10.23;;
25870;SDS011;13689;48.590;7.752;2023-11-18T03:52:21;22.10;;;10.40;;
25870;SDS011;13689;48.590;7.752;2023-11-18T03:54:47;17.60;;;9.35;;
25870;SDS011;13689;48.590;7.752;2023-11-18T03:57:13;16.30;;;8.93;;
25870;SDS011;13689;48.590;7.752;2023-11-18T03:59:39;17.30;;;8.77;;
25870;SDS011;13689;48.590;7.752;2023-11-18T04:02:05;16.05;;;7.65;;
25870;SDS011;13689;48.590;7.752;2023-11-18T04:04:31;15.38;;;9.10;;
25870;SDS011;13689;48.590;7.752;2023-11-18T04:06:57;14.20;;;8.13;;
25870;SDS011;13689;48.590;7.752;2023-11-18T04:09:25;14.93;;;8.57;;
25870;SDS011;13689;48.590;7.752;2023-11-18T04:11:51;15.05;;;8.07;;
25870;SDS011;13689;48.590;7.752;2023-11-18T04:14:17;19.63;;;8.60;;
25870;SDS011;13689;48.590;7.752;2023-11-18T04:16:44;16.65;;;8.38;;
25870;SDS011;13689;48.590;7.752;2023-11-18T04:19:11;12.63;;;7.72;;
25870;SDS011;13689;48.590;7.752;2023-11-18T04:21:37;15.52;;;7.85;;
25870;SDS011;13689;48.590;7.752;2023-11-18T04:24:03;13.48;;;8.20;;
25870;SDS011;13689;48.590;7.752;2023-11-18T04:26:30;12.73;;;7.75;;
25870;SDS011;13689;48.590;7.752;2023-11-18T04:28:57;15.07;;;8.07;;
25870;SDS011;13689;48.590;7.752;2023-11-18T04:31:22;12.25;;;7.78;;
25870;SDS011;13689;48.590;7.752;2023-11-18T04:33:48;16.27;;;7.43;;
25870;SDS011;13689;48.590;7.752;2023-11-18T04:36:14;17.60;;;7.93;;
25870;SDS011;13689;48.590;7.752;2023-11-18T04:38:41;15.15;;;7.70;;
25870;SDS011;13689;48.590;7.752;2023-11-18T04:41:07;16.73;;;8.13;;
25870;SDS011;13689;48.590;7.752;2023-11-18T04:43:33;14.98;;;8.02;;
25870;SDS011;13689;48.590;7.752;2023-11-18T04:45:58;16.35;;;8.45;;
25870;SDS011;13689;48.590;7.752;2023-11-18T04:48:24;16.88;;;9.13;;
25870;SDS011;13689;48.590;7.752;2023-11-18T04:50:50;14.82;;;8.80;;
25870;SDS011;13689;48.590;7.752;2023-11-18T04:53:16;16.98;;;8.85;;
25870;SDS011;13689;48.590;7.752;2023-11-18T04:55:41;15.32;;;8.57;;
25870;SDS011;13689;48.590;7.752;2023-11-18T04:58:07;24.15;;;9.43;;
25870;SDS011;13689;48.590;7.752;2023-11-18T05:00:34;19.15;;;9.20;;
25870;SDS011;13689;48.590;7.752;2023-11-18T05:03:03;12.88;;;8.80;;
25870;SDS011;13689;48.590;7.752;2023-11-18T05:05:29;18.08;;;9.25;;
25870;SDS011;13689;48.590;7.752;2023-11-18T05:07:55;19.40;;;8.90;;
25870;SDS011;13689;48.590;7.752;2023-11-18T05:10:21;16.52;;;9.02;;
25870;SDS011;13689;48.590;7.752;2023-11-18T05:12:47;21.20;;;9.70;;
25870;SDS011;13689;48.590;7.752;2023-11-18T05:15:20;20.95;;;9.50;;
25870;SDS011;13689;48.590;7.752;2023-11-18T05:17:49;19.25;;;9.32;;
25870;SDS011;13689;48.590;7.752;2023-11-18T05:20:19;15.90;;;9.45;;
25870;SDS011;13689;48.590;7.752;2023-11-18T05:22:45;16.23;;;9.15;;
25870;SDS011;13689;48.590;7.752;2023-11-18T05:25:11;21.05;;;9.85;;
25870;SDS011;13689;48.590;7.752;2023-11-18T05:27:36;19.63;;;10.52;;
25870;SDS011;13689;48.590;7.752;2023-11-18T05:30:05;19.17;;;9.73;;
25870;SDS011;13689;48.590;7.752;2023-11-18T05:32:34;18.25;;;10.32;;
25870;SDS011;13689;48.590;7.752;2023-11-18T05:35:00;17.83;;;9.65;;
25870;SDS011;13689;48.590;7.752;2023-11-18T05:37:26;18.15;;;9.43;;
25870;SDS011;13689;48.590;7.752;2023-11-18T05:39:55;18.98;;;9.80;;
25870;SDS011;13689;48.590;7.752;2023-11-18T05:42:35;21.33;;;9.13;;
25870;SDS011;13689;48.590;7.752;2023-11-18T05:45:02;18.73;;;9.88;;
25870;SDS011;13689;48.590;7.752;2023-11-18T05:47:29;22.87;;;11.30;;
25870;SDS011;13689;48.590;7.752;2023-11-18T05:49:55;24.20;;;10.15;;
25870;SDS011;13689;48.590;7.752;2023-11-18T05:52:20;18.58;;;10.50;;
25870;SDS011;13689;48.590;7.752;2023-11-18T05:54:47;21.65;;;10.32;;
25870;SDS011;13689;48.590;7.752;2023-11-18T05:57:14;22.38;;;9.55;;
25870;SDS011;13689;48.590;7.752;2023-11-18T05:59:40;15.60;;;7.93;;
25870;SDS011;13689;48.590;7.752;2023-11-18T06:02:06;25.50;;;9.80;;
25870;SDS011;13689;48.590;7.752;2023-11-18T06:04:33;17.13;;;9.60;;
25870;SDS011;13689;48.590;7.752;2023-11-18T06:06:58;22.23;;;10.80;;
25870;SDS011;13689;48.590;7.752;2023-11-18T06:09:24;20.80;;;9.52;;
25870;SDS011;13689;48.590;7.752;2023-11-18T06:11:51;27.10;;;12.27;;
25870;SDS011;13689;48.590;7.752;2023-11-18T06:14:18;21.77;;;10.23;;
25870;SDS011;13689;48.590;7.752;2023-11-18T06:16:44;21.23;;;10.32;;
25870;SDS011;13689;48.590;7.752;2023-11-18T06:19:12;27.02;;;10.38;;
25870;SDS011;13689;48.590;7.752;2023-11-18T06:21:38;18.80;;;10.70;;
25870;SDS011;13689;48.590;7.752;2023-11-18T06:24:04;17.98;;;10.35;;
25870;SDS011;13689;48.590;7.752;2023-11-18T06:26:30;20.63;;;10.85;;
25870;SDS011;13689;48.590;7.752;2023-11-18T06:28:56;24.17;;;10.55;;
25870;SDS011;13689;48.590;7.752;2023-11-18T06:31:22;17.13;;;10.15;;
25870;SDS011;13689;48.590;7.752;2023-11-18T06:33:49;20.30;;;10.57;;
25870;SDS011;13689;48.590;7.752;2023-11-18T06:38:43;21.88;;;10.13;;
25870;SDS011;13689;48.590;7.752;2023-11-18T06:41:09;17.15;;;10.05;;
25870;SDS011;13689;48.590;7.752;2023-11-18T06:43:37;20.85;;;10.15;;
25870;SDS011;13689;48.590;7.752;2023-11-18T06:46:31;22.85;;;9.80;;
25870;SDS011;13689;48.590;7.752;2023-11-18T06:49:02;20.27;;;10.13;;
25870;SDS011;13689;48.590;7.752;2023-11-18T06:51:29;20.13;;;10.02;;
25870;SDS011;13689;48.590;7.752;2023-11-18T06:53:57;22.85;;;10.60;;
25870;SDS011;13689;48.590;7.752;2023-11-18T06:56:23;20.42;;;9.43;;
25870;SDS011;13689;48.590;7.752;2023-11-18T06:58:49;21.33;;;9.95;;
25870;SDS011;13689;48.590;7.752;2023-11-18T07:01:15;18.95;;;10.02;;
25870;SDS011;13689;48.590;7.752;2023-11-18T07:03:42;15.65;;;9.55;;
25870;SDS011;13689;48.590;7.752;2023-11-18T07:06:08;18.33;;;9.15;;
25870;SDS011;13689;48.590;7.752;2023-11-18T07:08:35;14.75;;;9.60;;
25870;SDS011;13689;48.590;7.752;2023-11-18T07:11:01;16.45;;;8.98;;
25870;SDS011;13689;48.590;7.752;2023-11-18T07:13:28;17.17;;;9.02;;
25870;SDS011;13689;48.590;7.752;2023-11-18T07:15:53;14.82;;;8.55;;
25870;SDS011;13689;48.590;7.752;2023-11-18T07:18:21;16.80;;;8.68;;
25870;SDS011;13689;48.590;7.752;2023-11-18T07:20:50;15.40;;;8.77;;
25870;SDS011;13689;48.590;7.752;2023-11-18T07:23:19;14.07;;;8.50;;
25870;SDS011;13689;48.590;7.752;2023-11-18T07:25:45;18.40;;;9.25;;
25870;SDS011;13689;48.590;7.752;2023-11-18T07:28:11;14.43;;;7.80;;
25870;SDS011;13689;48.590;7.752;2023-11-18T07:30:39;12.77;;;7.63;;
25870;SDS011;13689;48.590;7.752;2023-11-18T07:33:06;12.80;;;7.97;;
25870;SDS011;13689;48.590;7.752;2023-11-18T07:35:33;16.23;;;7.57;;
25870;SDS011;13689;48.590;7.752;2023-11-18T07:37:59;14.18;;;7.25;;
25870;SDS011;13689;48.590;7.752;2023-11-18T07:40:25;13.15;;;8.10;;
25870;SDS011;13689;48.590;7.752;2023-11-18T07:45:20;11.45;;;7.20;;
25870;SDS011;13689;48.590;7.752;2023-11-18T07:47:48;11.05;;;6.85;;
25870;SDS011;13689;48.590;7.752;2023-11-18T07:50:17;15.20;;;6.82;;
25870;SDS011;13689;48.590;7.752;2023-11-18T07:52:44;13.07;;;7.47;;
25870;SDS011;13689;48.590;7.752;2023-11-18T07:55:12;12.15;;;7.25;;
25870;SDS011;13689;48.590;7.752;2023-11-18T07:57:38;15.18;;;7.38;;
25870;SDS011;13689;48.590;7.752;2023-11-18T08:00:04;12.25;;;6.93;;
25870;SDS011;13689;48.590;7.752;2023-11-18T08:02:36;11.65;;;7.45;;
25870;SDS011;13689;48.590;7.752;2023-11-18T08:05:03;13.23;;;7.57;;
25870;SDS011;13689;48.590;7.752;2023-11-18T08:07:33;15.73;;;7.53;;
25870;SDS011;13689;48.590;7.752;2023-11-18T08:09:59;8.05;;;5.63;;
25870;SDS011;13689;48.590;7.752;2023-11-18T08:12:25;14.23;;;7.75;;
25870;SDS011;13689;48.590;7.752;2023-11-18T08:14:50;15.32;;;8.13;;
25870;SDS011;13689;48.590;7.752;2023-11-18T08:17:16;15.60;;;8.68;;
25870;SDS011;13689;48.590;7.752;2023-11-18T08:19:42;18.13;;;8.40;;
25870;SDS011;13689;48.590;7.752;2023-11-18T08:22:07;19.98;;;9.15;;
25870;SDS011;13689;48.590;7.752;2023-11-18T08:24:34;18.00;;;8.65;;
25870;SDS011;13689;48.590;7.752;2023-11-18T08:27:02;15.02;;;8.38;;
25870;SDS011;13689;48.590;7.752;2023-11-18T08:29:29;16.03;;;8.67;;
25870;SDS011;13689;48.590;7.752;2023-11-18T08:31:57;14.27;;;7.38;;
25870;SDS011;13689;48.590;7.752;2023-11-18T08:34:22;16.35;;;7.22;;
25870;SDS011;13689;48.590;7.752;2023-11-18T08:39:16;17.30;;;8.15;;
25870;SDS011;13689;48.590;7.752;2023-11-18T08:41:45;15.18;;;7.57;;
25870;SDS011;13689;48.590;7.752;2023-11-18T08:44:11;18.83;;;7.50;;
25870;SDS011;13689;48.590;7.752;2023-11-18T08:46:40;16.92;;;7.70;;
25870;SDS011;13689;48.590;7.752;2023-11-18T08:49:06;16.83;;;7.18;;
25870;SDS011;13689;48.590;7.752;2023-11-18T08:51:36;15.60;;;7.03;;
25870;SDS011;13689;48.590;7.752;2023-11-18T08:54:03;16.50;;;7.05;;
25870;SDS011;13689;48.590;7.752;2023-11-18T08:56:47;14.07;;;6.78;;
25870;SDS011;13689;48.590;7.752;2023-11-18T08:59:19;13.00;;;6.88;;
25870;SDS011;13689;48.590;7.752;2023-11-18T09:01:50;12.32;;;6.68;;
25870;SDS011;13689;48.590;7.752;2023-11-18T09:04:20;14.85;;;7.93;;
25870;SDS011;13689;48.590;7.752;2023-11-18T09:06:52;13.90;;;6.65;;
25870;SDS011;13689;48.590;7.752;2023-11-18T09:09:19;17.75;;;6.70;;
25870;SDS011;13689;48.590;7.752;2023-11-18T09:11:56;12.20;;;5.93;;
25870;SDS011;13689;48.590;7.752;2023-11-18T09:14:25;12.32;;;5.78;;
25870;SDS011;13689;48.590;7.752;2023-11-18T09:16:51;12.32;;;6.13;;
25870;SDS011;13689;48.590;7.752;2023-11-18T09:19:20;11.77;;;7.15;;
25870;SDS011;13689;48.590;7.752;2023-11-18T09:21:46;14.38;;;6.53;;
25870;SDS011;13689;48.590;7.752;2023-11-18T09:24:13;13.97;;;6.77;;
25870;SDS011;13689;48.590;7.752;2023-11-18T09:26:39;15.50;;;7.03;;
25870;SDS011;13689;48.590;7.752;2023-11-18T09:29:09;14.90;;;6.47;;
25870;SDS011;13689;48.590;7.752;2023-11-18T09:31:35;18.05;;;7.28;;
25870;SDS011;13689;48.590;7.752;2023-11-18T09:34:04;15.02;;;7.20;;
25870;SDS011;13689;48.590;7.752;2023-11-18T09:36:40;13.55;;;7.15;;
25870;SDS011;13689;48.590;7.752;2023-11-18T09:39:08;17.65;;;7.47;;
25870;SDS011;13689;48.590;7.752;2023-11-18T09:41:35;15.00;;;7.10;;
25870;SDS011;13689;48.590;7.752;2023-11-18T09:44:00;17.15;;;7.32;;
25870;SDS011;13689;48.590;7.752;2023-11-18T09:46:27;15.63;;;7.38;;
25870;SDS011;13689;48.590;7.752;2023-11-18T09:51:43;14.93;;;7.07;;
25870;SDS011;13689;48.590;7.752;2023-11-18T09:57:15;14.02;;;6.53;;
25870;SDS011;13689;48.590;7.752;2023-11-18T10:02:44;14.48;;;7.40;;
25870;SDS011;13689;48.590;7.752;2023-11-18T10:05:11;16.67;;;6.88;;
25870;SDS011;13689;48.590;7.752;2023-11-18T10:07:39;10.60;;;6.65;;
25870;SDS011;13689;48.590;7.752;2023-11-18T10:10:10;12.90;;;6.50;;
25870;SDS011;13689;48.590;7.752;2023-11-18T10:12:42;12.63;;;6.38;;
25870;SDS011;13689;48.590;7.752;2023-11-18T10:15:12;14.57;;;6.47;;
25870;SDS011;13689;48.590;7.752;2023-11-18T10:17:45;15.75;;;6.75;;
25870;SDS011;13689;48.590;7.752;2023-11-18T10:23:21;12.80;;;5.72;;
25870;SDS011;13689;48.590;7.752;2023-11-18T10:25:52;17.77;;;6.68;;
25870;SDS011;13689;48.590;7.752;2023-11-18T10:28:25;12.13;;;6.28;;
25870;SDS011;13689;48.590;7.752;2023-11-18T10:31:04;14.60;;;5.82;;
25870;SDS011;13689;48.590;7.752;2023-11-18T10:33:37;11.98;;;4.70;;
25870;SDS011;13689;48.590;7.752;2023-11-18T10:36:06;15.63;;;6.13;;
25870;SDS011;13689;48.590;7.752;2023-11-18T10:38:49;9.73;;;6.57;;
25870;SDS011;13689;48.590;7.752;2023-11-18T10:41:17;14.82;;;6.45;;
25870;SDS011;13689;48.590;7.752;2023-11-18T10:43:44;17.85;;;6.53;;
25870;SDS011;13689;48.590;7.752;2023-11-18T10:46:10;12.63;;;5.65;;
25870;SDS011;13689;48.590;7.752;2023-11-18T10:48:44;11.20;;;6.07;;
25870;SDS011;13689;48.590;7.752;2023-11-18T10:51:15;16.38;;;6.85;;
25870;SDS011;13689;48.590;7.752;2023-11-18T10:53:48;14.27;;;5.80;;
25870;SDS011;13689;48.590;7.752;2023-11-18T10:56:21;16.40;;;5.85;;
25870;SDS011;13689;48.590;7.752;2023-11-18T10:58:56;13.90;;;5.75;;
25870;SDS011;13689;48.590;7.752;2023-11-18T11:01:56;13.60;;;7.10;;
25870;SDS011;13689;48.590;7.752;2023-11-18T11:04:16;12.93;;;6.18;;
25870;SDS011;13689;48.590;7.752;2023-11-18T11:06:45;18.20;;;6.28;;
25870;SDS011;13689;48.590;7.752;2023-11-18T11:09:20;12.88;;;6.72;;
25870;SDS011;13689;48.590;7.752;2023-11-18T11:11:55;13.13;;;6.63;;
25870;SDS011;13689;48.590;7.752;2023-11-18T11:14:33;13.38;;;5.93;;
25870;SDS011;13689;48.590;7.752;2023-11-18T11:17:06;15.70;;;6.95;;
25870;SDS011;13689;48.590;7.752;2023-11-18T11:31:39;15.98;;;6.65;;
25870;SDS011;13689;48.590;7.752;2023-11-18T11:34:18;17.27;;;8.35;;
25870;SDS011;13689;48.590;7.752;2023-11-18T11:36:51;15.75;;;7.97;;
25870;SDS011;13689;48.590;7.752;2023-11-18T11:39:19;24.35;;;8.18;;
25870;SDS011;13689;48.590;7.752;2023-11-18T11:41:51;18.65;;;7.40;;
25870;SDS011;13689;48.590;7.752;2023-11-18T11:44:21;13.02;;;7.55;;
25870;SDS011;13689;48.590;7.752;2023-11-18T11:46:54;19.08;;;8.75;;
25870;SDS011;13689;48.590;7.752;2023-11-18T11:49:25;15.32;;;7.72;;
25870;SDS011;13689;48.590;7.752;2023-11-18T11:54:54;21.00;;;7.40;;
25870;SDS011;13689;48.590;7.752;2023-11-18T11:57:27;17.67;;;8.02;;
25870;SDS011;13689;48.590;7.752;2023-11-18T12:02:21;19.40;;;7.35;;
25870;SDS011;13689;48.590;7.752;2023-11-18T12:04:54;17.95;;;7.90;;
25870;SDS011;13689;48.590;7.752;2023-11-18T12:07:23;15.25;;;7.10;;
25870;SDS011;13689;48.590;7.752;2023-11-18T12:09:58;14.07;;;7.28;;
25870;SDS011;13689;48.590;7.752;2023-11-18T12:12:26;16.35;;;7.18;;
25870;SDS011;13689;48.590;7.752;2023-11-18T12:14:55;15.68;;;7.32;;
25870;SDS011;13689;48.590;7.752;2023-11-18T12:17:23;17.33;;;7.40;;
25870;SDS011;13689;48.590;7.752;2023-11-18T12:19:53;15.35;;;7.30;;
25870;SDS011;13689;48.590;7.752;2023-11-18T12:22:24;19.10;;;8.43;;
25870;SDS011;13689;48.590;7.752;2023-11-18T12:33:03;15.05;;;8.77;;
25870;SDS011;13689;48.590;7.752;2023-11-18T12:35:44;19.42;;;8.50;;
25870;SDS011;13689;48.590;7.752;2023-11-18T12:41:16;18.30;;;8.50;;
25870;SDS011;13689;48.590;7.752;2023-11-18T12:44:09;17.50;;;8.77;;
25870;SDS011;13689;48.590;7.752;2023-11-18T12:46:59;18.65;;;9.25;;
25870;SDS011;13689;48.590;7.752;2023-11-18T12:49:39;18.55;;;9.40;;
25870;SDS011;13689;48.590;7.752;2023-11-18T12:52:08;25.35;;;10.00;;
25870;SDS011;13689;48.590;7.752;2023-11-18T12:54:36;14.13;;;8.13;;
25870;SDS011;13689;48.590;7.752;2023-11-18T12:57:08;19.15;;;9.20;;
25870;SDS011;13689;48.590;7.752;2023-11-18T12:59:35;24.42;;;9.10;;
25870;SDS011;13689;48.590;7.752;2023-11-18T13:02:02;19.55;;;9.80;;
25870;SDS011;13689;48.590;7.752;2023-11-18T13:04:44;17.13;;;7.68;;
25870;SDS011;13689;48.590;7.752;2023-11-18T13:07:15;22.02;;;7.63;;
25870;SDS011;13689;48.590;7.752;2023-11-18T13:09:46;13.05;;;7.35;;
25870;SDS011;13689;48.590;7.752;2023-11-18T13:12:12;12.32;;;7.25;;
25870;SDS011;13689;48.590;7.752;2023-11-18T13:14:42;13.52;;;7.05;;
25870;SDS011;13689;48.590;7.752;2023-11-18T13:17:09;13.75;;;6.65;;
25870;SDS011;13689;48.590;7.752;2023-11-18T13:19:36;13.95;;;6.28;;
25870;SDS011;13689;48.590;7.752;2023-11-18T13:22:02;11.68;;;6.43;;
25870;SDS011;13689;48.590;7.752;2023-11-18T13:24:36;7.47;;;5.30;;
25870;SDS011;13689;48.590;7.752;2023-11-18T13:27:07;10.65;;;5.97;;
25870;SDS011;13689;48.590;7.752;2023-11-18T13:29:37;12.82;;;5.03;;
25870;SDS011;13689;48.590;7.752;2023-11-18T13:32:06;12.00;;;5.00;;
25870;SDS011;13689;48.590;7.752;2023-11-18T13:34:35;9.57;;;5.43;;
25870;SDS011;13689;48.590;7.752;2023-11-18T13:37:06;7.88;;;3.85;;
25870;SDS011;13689;48.590;7.752;2023-11-18T13:39:32;7.90;;;4.32;;
25870;SDS011;13689;48.590;7.752;2023-11-18T13:41:58;10.50;;;4.40;;
25870;SDS011;13689;48.590;7.752;2023-11-18T13:44:42;9.38;;;4.00;;
25870;SDS011;13689;48.590;7.752;2023-11-18T13:47:09;11.55;;;5.03;;
25870;SDS011;13689;48.590;7.752;2023-11-18T13:49:39;9.80;;;4.97;;
25870;SDS011;13689;48.590;7.752;2023-11-18T13:52:05;10.23;;;4.40;;
25870;SDS011;13689;48.590;7.752;2023-11-18T13:54:37;13.57;;;4.80;;
25870;SDS011;13689;48.590;7.752;2023-11-18T13:57:03;8.02;;;4.80;;
25870;SDS011;13689;48.590;7.752;2023-11-18T13:59:30;11.00;;;5.35;;
25870;SDS011;13689;48.590;7.752;2023-11-18T14:01:57;9.20;;;4.18;;
25870;SDS011;13689;48.590;7.752;2023-11-18T14:04:27;7.37;;;4.40;;
25870;SDS011;13689;48.590;7.752;2023-11-18T14:06:57;8.80;;;4.57;;
25870;SDS011;13689;48.590;7.752;2023-11-18T14:09:24;9.15;;;4.03;;
25870;SDS011;13689;48.590;7.752;2023-11-18T14:11:51;6.45;;;3.80;;
25870;SDS011;13689;48.590;7.752;2023-11-18T14:14:20;12.55;;;4.53;;
25870;SDS011;13689;48.590;7.752;2023-11-18T14:16:46;13.75;;;5.13;;
25870;SDS011;13689;48.590;7.752;2023-11-18T14:19:11;14.05;;;6.25;;
25870;SDS011;13689;48.590;7.752;2023-11-18T14:21:38;9.23;;;4.63;;
25870;SDS011;13689;48.590;7.752;2023-11-18T14:24:06;10.73;;;4.65;;
25870;SDS011;13689;48.590;7.752;2023-11-18T14:26:33;9.05;;;3.58;;
25870;SDS011;13689;48.590;7.752;2023-11-18T14:28:58;13.27;;;4.75;;
25870;SDS011;13689;48.590;7.752;2023-11-18T14:31:25;7.75;;;4.35;;
25870;SDS011;13689;48.590;7.752;2023-11-18T14:33:50;10.90;;;4.32;;
25870;SDS011;13689;48.590;7.752;2023-11-18T14:36:16;11.93;;;5.15;;
25870;SDS011;13689;48.590;7.752;2023-11-18T14:38:44;12.25;;;4.85;;
25870;SDS011;13689;48.590;7.752;2023-11-18T14:41:09;10.55;;;4.82;;
25870;SDS011;13689;48.590;7.752;2023-11-18T14:43:35;11.25;;;5.35;;
25870;SDS011;13689;48.590;7.752;2023-11-18T14:46:01;10.38;;;5.05;;
25870;SDS011;13689;48.590;7.752;2023-11-18T14:48:28;14.13;;;5.68;;
25870;SDS011;13689;48.590;7.752;2023-11-18T14:50:54;12.90;;;5.35;;
25870;SDS011;13689;48.590;7.752;2023-11-18T14:53:21;6.90;;;3.72;;
25870;SDS011;13689;48.590;7.752;2023-11-18T14:55:47;15.05;;;5.07;;
25870;SDS011;13689;48.590;7.752;2023-11-18T14:58:13;16.45;;;5.38;;
25870;SDS011;13689;48.590;7.752;2023-11-18T15:00:39;15.07;;;6.20;;
25870;SDS011;13689;48.590;7.752;2023-11-18T15:03:04;13.27;;;5.65;;
25870;SDS011;13689;48.590;7.752;2023-11-18T15:05:31;13.30;;;5.22;;
25870;SDS011;13689;48.590;7.752;2023-11-18T15:07:56;14.30;;;5.25;;
25870;SDS011;13689;48.590;7.752;2023-11-18T15:10:25;13.55;;;5.50;;
25870;SDS011;13689;48.590;7.752;2023-11-18T15:12:53;13.25;;;5.47;;
25870;SDS011;13689;48.590;7.752;2023-11-18T15:15:23;11.52;;;5.88;;
25870;SDS011;13689;48.590;7.752;2023-11-18T15:17:57;12.25;;;4.93;;
25870;SDS011;13689;48.590;7.752;2023-11-18T15:20:23;11.30;;;4.80;;
25870;SDS011;13689;48.590;7.752;2023-11-18T15:22:50;9.48;;;4.63;;
25870;SDS011;13689;48.590;7.752;2023-11-18T15:25:16;9.15;;;4.50;;